createdAt,value
2022-08-25T00:01:37.875Z,75064.38
2022-08-25T00:04:11.009Z,75064.38
2022-08-25T00:06:38.828Z,75060.53
2022-08-25T00:09:06.094Z,75064.38
2022-08-25T00:11:35.132Z,75066.31
2022-08-25T00:14:07.398Z,75060.53
2022-08-25T00:16:34.857Z,75066.31
2022-08-25T00:19:06.193Z,75064.38
2022-08-25T00:21:32.941Z,75068.25
2022-08-25T00:24:02.366Z,75072.09
2022-08-25T00:26:30.316Z,75072.09
2022-08-25T00:29:01.856Z,75072.09
2022-08-25T00:31:38.836Z,75075.94
2022-08-25T00:34:09.710Z,75068.25
2022-08-25T00:36:37.745Z,75072.09
2022-08-25T00:39:06.277Z,75068.25
2022-08-25T00:41:35.280Z,75068.25
2022-08-25T00:44:06.352Z,75068.25
2022-08-25T00:46:37.912Z,75072.09
2022-08-25T00:49:14.706Z,75064.38
2022-08-25T00:52:24.020Z,75060.53
2022-08-25T00:55:08.010Z,75066.31
2022-08-25T00:57:43.279Z,75066.31
2022-08-25T01:00:19.465Z,75068.25
2022-08-25T01:02:46.892Z,75068.25
2022-08-25T01:05:13.769Z,75064.38
2022-08-25T01:07:43.617Z,75068.25
2022-08-25T01:10:13.581Z,75075.94
2022-08-25T01:12:41.315Z,75074.00
2022-08-25T01:15:10.570Z,75074.00
2022-08-25T01:17:46.585Z,75075.94
2022-08-25T01:20:14.453Z,75077.88
2022-08-25T01:22:41.776Z,75077.88
2022-08-25T01:25:39.194Z,75075.94
2022-08-25T01:28:06.384Z,75074.00
2022-08-25T01:30:33.762Z,75068.25
2022-08-25T01:33:04.814Z,75072.09
2022-08-25T01:35:32.903Z,75068.25
2022-08-25T01:38:01.138Z,75066.31
2022-08-25T01:40:28.398Z,75066.31
2022-08-25T01:43:07.675Z,75072.09
2022-08-25T01:45:35.449Z,75072.09
2022-08-25T01:48:03.351Z,75068.25
2022-08-25T01:50:30.246Z,75072.09
2022-08-25T01:52:59.599Z,75064.38
2022-08-25T01:55:27.412Z,75066.31
2022-08-25T01:57:54.452Z,75064.38
2022-08-25T02:00:22.640Z,75072.09
2022-08-25T02:02:53.997Z,75066.31
2022-08-25T02:05:23.476Z,75064.38
2022-08-25T02:07:50.720Z,75064.38
2022-08-25T02:10:17.621Z,75064.38
2022-08-25T02:12:44.358Z,75064.38
2022-08-25T02:15:11.367Z,75068.25
2022-08-25T02:17:38.203Z,75072.09
2022-08-25T02:20:08.578Z,75072.09
2022-08-25T02:22:35.459Z,75068.25
2022-08-25T02:25:02.206Z,75075.94
2022-08-25T02:27:29.464Z,75077.88
2022-08-25T02:29:56.201Z,75077.88
2022-08-25T02:32:22.990Z,75077.88
2022-08-25T02:34:49.989Z,75077.88
2022-08-25T02:37:16.825Z,75083.66
2022-08-25T02:39:43.556Z,75077.88
2022-08-25T02:42:10.383Z,75083.66
2022-08-25T02:44:37.160Z,75083.66
2022-08-25T02:47:04.216Z,75081.72
2022-08-25T02:49:32.145Z,75083.66
2022-08-25T02:52:00.597Z,75079.78
2022-08-25T02:54:28.724Z,75081.72
2022-08-25T02:56:55.496Z,75075.94
2022-08-25T02:59:22.391Z,75079.78
2022-08-25T03:01:49.127Z,75083.66
2022-08-25T03:04:15.903Z,75079.78
2022-08-25T03:06:43.012Z,75077.88
2022-08-25T03:09:10.378Z,75079.78
2022-08-25T03:11:38.357Z,75079.78
2022-08-25T03:14:09.786Z,75081.72
2022-08-25T03:16:37.410Z,75083.66
2022-08-25T03:19:05.608Z,75089.41
2022-08-25T03:21:32.868Z,75097.13
2022-08-25T03:24:00.681Z,75102.91
2022-08-25T03:26:45.999Z,75099.06
2022-08-25T03:29:13.901Z,75102.91
2022-08-25T03:31:40.910Z,75108.69
2022-08-25T03:34:07.762Z,75114.47
2022-08-25T03:36:34.540Z,75118.31
2022-08-25T03:39:01.318Z,75122.16
2022-08-25T03:41:30.426Z,75126.03
2022-08-25T03:43:57.368Z,75133.72
2022-08-25T03:46:30.275Z,75133.72
2022-08-25T03:48:58.202Z,75139.50
2022-08-25T03:51:29.396Z,75145.28
2022-08-25T03:53:57.494Z,75149.13
2022-08-25T03:56:24.453Z,75160.69
2022-08-25T03:58:51.485Z,75164.53
2022-08-25T04:01:18.501Z,75162.63
2022-08-25T04:03:46.455Z,75164.53
2022-08-25T04:06:13.993Z,75172.25
2022-08-25T04:08:40.807Z,75172.25
2022-08-25T04:11:10.304Z,75176.09
2022-08-25T04:13:37.833Z,75176.09
2022-08-25T04:16:11.384Z,75181.88
2022-08-25T04:18:38.869Z,75176.09
2022-08-25T04:21:06.878Z,75170.31
2022-08-25T04:23:34.059Z,75160.69
2022-08-25T04:26:01.435Z,75147.22
2022-08-25T04:28:29.621Z,75112.53
2022-08-25T04:30:56.370Z,75075.94
2022-08-25T04:33:23.142Z,75022.00
2022-08-25T04:35:50.505Z,74964.22
2022-08-25T04:38:17.439Z,74891.03
2022-08-25T04:40:44.232Z,74825.53
2022-08-25T04:43:11.031Z,74752.34
2022-08-25T04:45:39.895Z,74706.13
2022-08-25T04:48:07.159Z,74648.34
2022-08-25T04:50:34.208Z,74594.44
2022-08-25T04:53:01.555Z,74536.66
2022-08-25T04:55:28.294Z,74444.22
2022-08-25T04:57:55.158Z,74386.44
2022-08-25T05:00:21.948Z,74301.69
2022-08-25T05:02:48.724Z,74253.56
2022-08-25T05:05:16.270Z,74301.69
2022-08-25T05:07:42.979Z,74240.06
2022-08-25T05:10:09.827Z,74170.75
2022-08-25T05:12:36.566Z,74111.06
2022-08-25T05:15:24.649Z,74151.50
2022-08-25T05:17:55.704Z,73976.25
2022-08-25T05:20:24.215Z,74141.88
2022-08-25T05:22:51.330Z,74213.13
2022-08-25T05:25:18.550Z,74311.34
2022-08-25T05:27:45.349Z,74265.13
2022-08-25T05:30:12.927Z,74259.34
2022-08-25T05:32:39.874Z,74139.94
2022-08-25T05:35:07.482Z,74061.00
2022-08-25T05:37:34.513Z,73987.81
2022-08-25T05:40:01.352Z,73958.94
2022-08-25T05:42:29.022Z,73976.25
2022-08-25T05:44:55.868Z,73781.78
2022-08-25T05:47:22.665Z,73955.09
2022-08-25T05:49:49.444Z,73908.88
2022-08-25T05:52:18.228Z,73789.50
2022-08-25T05:54:47.067Z,73737.50
2022-08-25T05:57:14.424Z,73685.53
2022-08-25T05:59:41.240Z,73816.44
2022-08-25T06:02:26.900Z,73947.38
2022-08-25T06:04:53.683Z,73970.50
2022-08-25T06:07:21.088Z,73920.44
2022-08-25T06:09:49.981Z,73851.09
2022-08-25T06:12:18.069Z,73793.34
2022-08-25T06:14:45.266Z,73662.41
2022-08-25T06:17:12.024Z,73473.72
2022-08-25T06:19:39.766Z,73589.25
2022-08-25T06:22:08.110Z,73431.38
2022-08-25T06:24:35.036Z,73789.50
2022-08-25T06:27:02.031Z,73939.69
2022-08-25T06:29:29.230Z,73870.34
2022-08-25T06:31:56.008Z,73704.78
2022-08-25T06:34:24.000Z,73662.41
2022-08-25T06:36:51.325Z,73448.69
2022-08-25T06:39:18.061Z,73423.69
2022-08-25T06:41:44.801Z,73712.47
2022-08-25T06:44:12.227Z,73631.59
2022-08-25T06:46:39.672Z,73687.44
2022-08-25T06:49:06.946Z,73585.41
2022-08-25T06:51:36.173Z,73664.34
2022-08-25T06:54:05.070Z,73735.59
2022-08-25T06:56:32.347Z,73643.16
2022-08-25T06:59:01.546Z,73571.91
2022-08-25T07:01:28.338Z,73446.78
2022-08-25T07:03:59.960Z,73312.00
2022-08-25T07:06:29.232Z,73302.38
2022-08-25T07:08:56.057Z,73236.94
2022-08-25T07:11:22.963Z,73312.00
2022-08-25T07:13:50.962Z,73238.84
2022-08-25T07:16:20.592Z,73269.66
2022-08-25T07:18:48.694Z,73202.28
2022-08-25T07:21:15.983Z,73175.31
2022-08-25T07:23:42.921Z,73462.19
2022-08-25T07:26:33.660Z,73442.94
2022-08-25T07:29:00.162Z,73327.41
2022-08-25T07:31:29.562Z,73252.34
2022-08-25T07:34:15.345Z,73250.41
2022-08-25T07:36:44.093Z,73325.50
2022-08-25T07:39:11.089Z,73623.91
2022-08-25T07:41:40.597Z,73766.38
2022-08-25T07:44:10.147Z,73789.50
2022-08-25T07:46:37.373Z,73631.59
2022-08-25T07:49:05.376Z,73504.53
2022-08-25T07:52:04.285Z,73685.53
2022-08-25T07:54:33.832Z,73756.75
2022-08-25T07:57:02.278Z,73745.22
2022-08-25T07:59:29.294Z,73662.41
2022-08-25T08:01:56.076Z,73544.97
2022-08-25T08:04:22.841Z,73670.13
2022-08-25T08:06:49.568Z,73681.66
2022-08-25T08:09:16.965Z,73643.16
2022-08-25T08:11:53.748Z,73647.00
2022-08-25T08:14:20.898Z,73654.72
2022-08-25T08:16:48.000Z,73471.81
2022-08-25T08:19:15.988Z,73460.25
2022-08-25T08:21:43.920Z,73442.94
2022-08-25T08:24:25.043Z,73485.28
2022-08-25T08:26:59.316Z,73550.75
2022-08-25T08:29:26.929Z,73627.75
2022-08-25T08:31:53.738Z,73620.06
2022-08-25T08:34:24.752Z,73704.78
2022-08-25T08:36:52.510Z,73729.81
2022-08-25T08:39:19.255Z,73739.44
2022-08-25T08:42:18.188Z,73814.53
2022-08-25T08:44:44.867Z,73720.19
2022-08-25T08:47:27.608Z,73635.47
2022-08-25T08:50:21.635Z,73724.03
2022-08-25T08:53:08.145Z,73687.44
2022-08-25T08:55:48.310Z,73770.25
2022-08-25T08:58:26.510Z,73820.28
2022-08-25T09:00:56.153Z,73799.13
2022-08-25T09:03:40.011Z,73768.31
2022-08-25T09:06:12.184Z,73731.72
2022-08-25T09:08:44.601Z,73693.22
2022-08-25T09:11:39.841Z,73816.44
2022-08-25T09:14:22.036Z,73725.94
2022-08-25T09:17:06.552Z,73766.38
2022-08-25T09:19:41.914Z,73774.09
2022-08-25T09:22:42.937Z,73727.88
2022-08-25T09:25:39.780Z,73839.56
2022-08-25T09:28:30.235Z,73802.97
2022-08-25T09:31:02.515Z,73866.50
2022-08-25T09:33:34.264Z,73985.91
2022-08-25T09:36:04.580Z,74051.38
2022-08-25T09:38:33.581Z,74093.72
2022-08-25T09:41:03.100Z,74124.53
2022-08-25T09:43:52.370Z,74105.28
2022-08-25T09:46:28.060Z,74032.09
2022-08-25T09:48:59.428Z,73974.34
2022-08-25T09:51:42.563Z,73982.03
2022-08-25T09:54:12.774Z,73980.13
2022-08-25T09:56:55.967Z,73945.47
2022-08-25T09:59:34.823Z,73941.59
2022-08-25T10:02:02.584Z,73908.88
2022-08-25T10:04:40.006Z,73920.44
2022-08-25T10:07:32.464Z,73893.47
2022-08-25T10:10:02.295Z,73928.13
2022-08-25T10:12:42.623Z,73945.47
2022-08-25T10:15:15.951Z,73962.78
2022-08-25T10:17:56.901Z,73939.69
2022-08-25T10:20:33.071Z,73928.13
2022-08-25T10:23:11.750Z,73903.09
2022-08-25T10:25:57.691Z,73901.16
2022-08-25T10:28:38.033Z,73858.81
2022-08-25T10:31:15.302Z,73854.97
2022-08-25T10:34:06.066Z,73797.19
2022-08-25T10:36:47.179Z,73793.34
2022-08-25T10:39:36.353Z,73774.09
2022-08-25T10:42:25.781Z,73720.19
2022-08-25T10:45:41.541Z,73783.72
2022-08-25T10:48:13.143Z,73793.34
2022-08-25T10:51:18.019Z,73866.50
2022-08-25T10:54:19.711Z,73876.13
2022-08-25T10:57:01.488Z,73818.38
2022-08-25T10:59:34.456Z,73777.94
2022-08-25T11:02:19.999Z,73758.69
2022-08-25T11:05:09.739Z,73772.16
2022-08-25T11:07:45.067Z,73735.59
2022-08-25T11:10:17.704Z,73743.28
2022-08-25T11:12:59.358Z,73693.22
2022-08-25T11:15:37.517Z,73860.72
2022-08-25T11:18:13.935Z,73801.03
2022-08-25T11:21:12.721Z,73745.22
2022-08-25T11:23:49.482Z,73693.22
2022-08-25T11:26:31.964Z,73727.88
2022-08-25T11:29:16.561Z,73706.69
2022-08-25T11:31:54.040Z,73658.56
2022-08-25T11:34:22.690Z,73760.59
2022-08-25T11:36:55.124Z,73752.91
2022-08-25T11:39:41.659Z,73693.22
2022-08-25T11:42:23.629Z,73618.13
2022-08-25T11:45:12.043Z,73666.25
2022-08-25T11:48:01.582Z,73700.91
2022-08-25T11:50:35.127Z,73741.34
2022-08-25T11:53:11.517Z,73704.78
2022-08-25T11:55:38.353Z,73672.03
2022-08-25T11:58:24.948Z,73627.75
2022-08-25T12:00:53.725Z,73581.56
2022-08-25T12:03:32.528Z,73558.44
2022-08-25T12:06:21.474Z,73579.63
2022-08-25T12:09:00.531Z,73645.09
2022-08-25T12:11:52.341Z,73787.56
2022-08-25T12:14:22.070Z,73812.59
2022-08-25T12:16:51.721Z,73774.09
2022-08-25T12:19:41.892Z,73812.59
2022-08-25T12:22:09.212Z,73839.56
2022-08-25T12:24:47.301Z,73774.09
2022-08-25T12:27:24.773Z,73695.16
2022-08-25T12:29:53.602Z,73662.41
2022-08-25T12:32:57.885Z,73666.25
2022-08-25T12:35:55.908Z,73620.06
2022-08-25T12:38:51.929Z,73616.19
2022-08-25T12:41:27.466Z,73608.50
2022-08-25T12:44:35.078Z,73697.06
2022-08-25T12:47:32.466Z,73731.72
2022-08-25T12:50:28.703Z,73785.63
2022-08-25T12:53:08.634Z,73739.44
2022-08-25T12:55:37.490Z,73662.41
2022-08-25T12:58:06.534Z,73643.16
2022-08-25T13:01:01.848Z,73747.13
2022-08-25T13:03:46.759Z,73731.72
2022-08-25T13:06:29.900Z,73747.13
2022-08-25T13:09:24.240Z,73849.19
2022-08-25T13:12:07.049Z,73876.13
2022-08-25T13:14:40.234Z,73908.88
2022-08-25T13:17:09.535Z,73928.13
2022-08-25T13:19:37.749Z,73912.72
2022-08-25T13:22:16.588Z,73851.09
2022-08-25T13:24:45.701Z,73802.97
2022-08-25T13:27:28.185Z,73750.97
2022-08-25T13:29:58.307Z,73720.19
2022-08-25T13:32:32.448Z,73791.41
2022-08-25T13:35:25.544Z,73743.28
2022-08-25T13:37:55.240Z,73712.47
2022-08-25T13:40:30.041Z,73650.88
2022-08-25T13:43:05.747Z,73616.19
2022-08-25T13:45:41.061Z,73668.19
2022-08-25T13:48:22.389Z,73666.25
2022-08-25T13:50:52.266Z,73697.06
2022-08-25T13:53:26.096Z,73708.63
2022-08-25T13:55:58.075Z,73699.00
2022-08-25T13:58:44.364Z,73643.16
2022-08-25T14:01:22.244Z,73668.19
2022-08-25T14:04:20.802Z,73670.13
2022-08-25T14:06:48.108Z,73627.75
2022-08-25T14:09:18.218Z,73647.00
2022-08-25T14:11:58.643Z,73683.59
2022-08-25T14:14:25.320Z,73706.69
2022-08-25T14:16:52.281Z,73731.72
2022-08-25T14:19:23.771Z,73795.28
2022-08-25T14:21:56.776Z,73816.44
2022-08-25T14:24:23.948Z,73808.75
2022-08-25T14:26:54.414Z,73774.09
2022-08-25T14:29:22.661Z,73797.19
2022-08-25T14:31:51.002Z,73760.59
2022-08-25T14:34:25.326Z,73741.34
2022-08-25T14:36:55.849Z,73760.59
2022-08-25T14:39:22.612Z,73777.94
2022-08-25T14:41:52.613Z,73818.38
2022-08-25T14:44:20.070Z,73816.44
2022-08-25T14:46:55.637Z,73822.22
2022-08-25T14:49:29.902Z,73847.25
2022-08-25T14:52:07.725Z,73835.69
2022-08-25T14:54:37.618Z,73824.16
2022-08-25T14:57:04.662Z,73828.00
2022-08-25T14:59:35.328Z,73826.06
2022-08-25T15:02:02.446Z,73795.28
2022-08-25T15:04:30.259Z,73801.03
2022-08-25T15:07:02.756Z,73804.91
2022-08-25T15:09:33.538Z,73766.38
2022-08-25T15:12:00.646Z,73772.16
2022-08-25T15:14:28.411Z,73789.50
2022-08-25T15:16:59.989Z,73783.72
2022-08-25T15:19:27.498Z,73774.09
2022-08-25T15:21:54.682Z,73772.16
2022-08-25T15:24:26.476Z,73783.72
2022-08-25T15:26:59.010Z,73799.13
2022-08-25T15:29:29.771Z,73793.34
2022-08-25T15:31:58.751Z,73781.78
2022-08-25T15:34:25.730Z,73785.63
2022-08-25T15:36:52.585Z,73808.75
2022-08-25T15:39:20.340Z,73797.19
2022-08-25T15:41:54.234Z,73793.34
2022-08-25T15:44:24.125Z,73789.50
2022-08-25T15:46:53.341Z,73797.19
2022-08-25T15:49:24.323Z,73797.19
2022-08-25T15:51:55.289Z,73801.03
2022-08-25T15:54:26.638Z,73801.03
2022-08-25T15:56:56.595Z,73812.59
2022-08-25T15:59:24.371Z,73831.84
2022-08-25T16:01:54.164Z,73824.16
2022-08-25T16:04:26.864Z,73847.25
2022-08-25T16:06:54.304Z,73851.09
2022-08-25T16:09:23.623Z,73854.97
2022-08-25T16:11:56.930Z,73847.25
2022-08-25T16:14:27.858Z,73841.47
2022-08-25T16:16:58.503Z,73845.34
2022-08-25T16:19:28.690Z,73858.81
2022-08-25T16:21:56.437Z,73851.09
2022-08-25T16:24:23.529Z,73858.81
2022-08-25T16:26:51.737Z,73862.66
2022-08-25T16:29:19.895Z,73878.06
2022-08-25T16:31:53.476Z,73881.91
2022-08-25T16:34:24.425Z,73891.53
2022-08-25T16:36:52.782Z,73901.16
2022-08-25T16:39:20.990Z,73908.88
2022-08-25T16:41:48.009Z,73910.78
2022-08-25T16:44:15.214Z,73916.56
2022-08-25T16:46:44.224Z,73922.34
2022-08-25T16:49:13.443Z,73924.28
2022-08-25T16:51:40.527Z,73933.91
2022-08-25T16:54:27.828Z,73939.69
2022-08-25T16:56:55.584Z,73953.16
2022-08-25T16:59:23.619Z,73966.63
2022-08-25T17:01:51.415Z,73970.50
2022-08-25T17:04:18.368Z,73978.19
2022-08-25T17:06:49.577Z,73982.03
2022-08-25T17:09:22.900Z,73993.59
2022-08-25T17:11:54.334Z,74001.28
2022-08-25T17:14:21.615Z,74012.84
2022-08-25T17:16:50.532Z,74018.63
2022-08-25T17:19:17.798Z,74024.41
2022-08-25T17:21:46.227Z,74039.81
2022-08-25T17:24:14.275Z,74051.38
2022-08-25T17:26:42.400Z,74064.84
2022-08-25T17:29:09.781Z,74074.47
2022-08-25T17:31:40.004Z,74080.25
2022-08-25T17:34:10.262Z,74097.59
2022-08-25T17:36:37.876Z,74118.75
2022-08-25T17:39:09.250Z,74139.94
2022-08-25T17:41:37.798Z,74159.19
2022-08-25T17:44:05.663Z,74182.31
2022-08-25T17:46:32.996Z,74193.88
2022-08-25T17:48:59.902Z,74216.97
2022-08-25T17:51:26.770Z,74232.38
2022-08-25T17:53:57.040Z,74249.72
2022-08-25T17:56:25.325Z,74267.03
2022-08-25T17:58:55.626Z,74280.53
2022-08-25T18:01:25.072Z,74294.00
2022-08-25T18:03:53.007Z,74309.41
2022-08-25T18:06:21.495Z,74326.75
2022-08-25T18:08:51.218Z,74334.44
2022-08-25T18:11:20.319Z,74344.06
2022-08-25T18:13:47.607Z,74357.56
2022-08-25T18:16:17.340Z,74367.19
2022-08-25T18:18:44.474Z,74380.66
2022-08-25T18:21:16.778Z,74394.13
2022-08-25T18:23:44.266Z,74398.00
2022-08-25T18:26:13.264Z,74401.84
2022-08-25T18:28:43.694Z,74417.25
2022-08-25T18:31:13.274Z,74417.25
2022-08-25T18:33:44.854Z,74432.66
2022-08-25T18:36:13.167Z,74444.22
2022-08-25T18:39:02.128Z,74459.63
2022-08-25T18:41:35.607Z,74469.25
2022-08-25T18:44:03.054Z,74476.94
2022-08-25T18:46:29.859Z,74482.72
2022-08-25T18:48:56.713Z,74502.00
2022-08-25T18:51:23.869Z,74509.69
2022-08-25T18:53:54.444Z,74517.38
2022-08-25T18:56:25.994Z,74528.94
2022-08-25T18:58:52.900Z,74528.94
2022-08-25T19:01:21.364Z,74532.81
2022-08-25T19:03:48.987Z,74540.50
2022-08-25T19:06:16.808Z,74550.13
2022-08-25T19:08:44.639Z,74563.63
2022-08-25T19:11:12.570Z,74569.41
2022-08-25T19:13:40.240Z,74573.25
2022-08-25T19:16:35.751Z,74582.88
2022-08-25T19:19:04.559Z,74590.56
2022-08-25T19:21:35.275Z,74598.28
2022-08-25T19:24:03.213Z,74604.06
2022-08-25T19:26:30.653Z,74615.63
2022-08-25T19:28:57.988Z,74623.31
2022-08-25T19:31:25.581Z,74617.53
2022-08-25T19:33:54.704Z,74625.25
2022-08-25T19:36:24.586Z,74634.88
2022-08-25T19:38:58.647Z,74640.66
2022-08-25T19:41:27.466Z,74636.81
2022-08-25T19:43:57.492Z,74638.72
2022-08-25T19:46:36.295Z,74638.72
2022-08-25T19:49:11.308Z,74636.81
2022-08-25T19:51:40.999Z,74642.56
2022-08-25T19:54:16.990Z,74652.22
2022-08-25T19:56:54.354Z,74656.06
2022-08-25T19:59:40.813Z,74669.53
2022-08-25T20:02:29.834Z,74683.03
2022-08-25T20:04:59.410Z,74694.56
2022-08-25T20:07:30.027Z,74713.84
2022-08-25T20:09:58.706Z,74711.91
2022-08-25T20:12:27.205Z,74713.84
2022-08-25T20:14:55.942Z,74721.53
2022-08-25T20:17:24.791Z,74725.41
2022-08-25T20:19:58.911Z,74733.09
2022-08-25T20:22:27.723Z,74736.94
2022-08-25T20:25:00.413Z,74736.94
2022-08-25T20:27:35.191Z,74744.66
2022-08-25T20:30:04.696Z,74752.34
2022-08-25T20:32:33.075Z,74754.28
2022-08-25T20:35:01.298Z,74763.91
2022-08-25T20:37:28.819Z,74769.69
2022-08-25T20:39:55.922Z,74773.53
2022-08-25T20:42:22.828Z,74775.47
2022-08-25T20:44:49.763Z,74783.16
2022-08-25T20:47:20.560Z,74787.03
2022-08-25T20:49:47.671Z,74794.72
2022-08-25T20:52:15.644Z,74794.72
2022-08-25T20:54:47.067Z,74794.72
2022-08-25T20:57:16.753Z,74790.88
2022-08-25T20:59:43.547Z,74790.88
2022-08-25T21:02:10.469Z,74794.72
2022-08-25T21:04:40.043Z,74808.22
2022-08-25T21:07:17.098Z,74810.13
2022-08-25T21:09:43.910Z,74814.00
2022-08-25T21:12:10.807Z,74821.69
2022-08-25T21:14:40.812Z,74821.69
2022-08-25T21:17:10.732Z,74821.69
2022-08-25T21:19:39.014Z,74825.53
2022-08-25T21:22:07.586Z,74825.53
2022-08-25T21:24:34.665Z,74833.25
2022-08-25T21:27:03.320Z,74840.97
2022-08-25T21:29:32.899Z,74848.66
2022-08-25T21:31:59.895Z,74852.50
2022-08-25T21:34:28.190Z,74854.44
2022-08-25T21:36:57.981Z,74856.38
2022-08-25T21:39:27.568Z,74858.28
2022-08-25T21:41:59.967Z,74867.91
2022-08-25T21:44:27.143Z,74862.13
2022-08-25T21:46:54.713Z,74869.84
2022-08-25T21:49:23.036Z,74877.56
2022-08-25T21:51:59.300Z,74869.84
2022-08-25T21:54:28.823Z,74875.63
2022-08-25T21:57:04.845Z,74879.47
2022-08-25T21:59:34.725Z,74879.47
2022-08-25T22:02:05.037Z,74883.31
2022-08-25T22:04:32.781Z,74891.03
2022-08-25T22:07:00.504Z,74891.03
2022-08-25T22:09:28.255Z,74891.03
2022-08-25T22:11:55.710Z,74898.72
2022-08-25T22:14:24.304Z,74891.03
2022-08-25T22:16:54.481Z,74898.72
2022-08-25T22:19:22.839Z,74902.59
2022-08-25T22:21:51.342Z,74902.59
2022-08-25T22:24:18.483Z,74898.72
2022-08-25T22:26:47.472Z,74902.59
2022-08-25T22:29:14.671Z,74894.88
2022-08-25T22:31:53.024Z,74894.88
2022-08-25T22:34:20.087Z,74896.81
2022-08-25T22:36:59.767Z,74902.59
2022-08-25T22:39:27.748Z,74898.72
2022-08-25T22:41:54.555Z,74894.88
2022-08-25T22:44:23.227Z,74894.88
2022-08-25T22:46:50.228Z,74894.88
2022-08-25T22:49:17.925Z,74898.72
2022-08-25T22:51:44.813Z,74898.72
2022-08-25T22:54:15.138Z,74898.72
2022-08-25T22:56:42.184Z,74902.59
2022-08-25T22:59:12.150Z,74910.28
2022-08-25T23:01:39.705Z,74914.16
2022-08-25T23:04:07.893Z,74918.00
2022-08-25T23:06:35.416Z,74918.00
2022-08-25T23:09:05.276Z,74921.84
2022-08-25T23:11:32.103Z,74918.00
2022-08-25T23:14:05.569Z,74921.84
2022-08-25T23:16:33.242Z,74923.78
2022-08-25T23:19:00.828Z,74933.41
2022-08-25T23:21:46.859Z,74933.41
2022-08-25T23:24:29.416Z,74939.19
2022-08-25T23:27:01.925Z,74952.66
2022-08-25T23:29:30.087Z,74956.53
2022-08-25T23:31:58.582Z,74952.66
2022-08-25T23:34:26.715Z,74948.81
2022-08-25T23:36:56.026Z,74952.66
2022-08-25T23:39:22.925Z,74960.38
2022-08-25T23:41:50.117Z,74958.44
2022-08-25T23:44:18.679Z,74956.53
2022-08-25T23:46:47.553Z,74954.59
2022-08-25T23:49:18.529Z,74952.66
2022-08-25T23:51:51.798Z,74952.66
2022-08-25T23:54:20.875Z,74954.59
2022-08-25T23:56:52.234Z,74950.75
2022-08-25T23:59:24.155Z,74964.22
